sensor_id;sensor_type;location;lat;lon;timestamp;temperature;humidity
73665;DHT22;61964;52.052;4.474;2023-06-26T00:02:23;23.96;61.10
73665;DHT22;61964;52.052;4.474;2023-06-26T00:04:49;23.92;61.12
73665;DHT22;61964;52.052;4.474;2023-06-26T00:07:22;23.95;61.18
73665;DHT22;61964;52.052;4.474;2023-06-26T00:09:48;23.92;61.73
73665;DHT22;61964;52.052;4.474;2023-06-26T00:12:13;23.83;61.55
73665;DHT22;61964;52.052;4.474;2023-06-26T00:14:39;23.76;62.03
73665;DHT22;61964;52.052;4.474;2023-06-26T00:17:05;23.69;62.27
73665;DHT22;61964;52.052;4.474;2023-06-26T00:19:31;23.59;62.61
73665;DHT22;61964;52.052;4.474;2023-06-26T00:21:56;23.57;62.82
73665;DHT22;61964;52.052;4.474;2023-06-26T00:24:22;23.50;63.60
73665;DHT22;61964;52.052;4.474;2023-06-26T00:26:48;23.47;63.46
73665;DHT22;61964;52.052;4.474;2023-06-26T00:29:14;23.41;63.52
73665;DHT22;61964;52.052;4.474;2023-06-26T00:31:39;23.37;63.71
73665;DHT22;61964;52.052;4.474;2023-06-26T00:34:06;23.37;63.98
73665;DHT22;61964;52.052;4.474;2023-06-26T00:36:32;23.31;63.63
73665;DHT22;61964;52.052;4.474;2023-06-26T00:38:59;23.24;63.96
73665;DHT22;61964;52.052;4.474;2023-06-26T00:41:24;23.22;63.14
73665;DHT22;61964;52.052;4.474;2023-06-26T00:43:50;23.20;63.27
73665;DHT22;61964;52.052;4.474;2023-06-26T00:46:17;23.08;63.41
73665;DHT22;61964;52.052;4.474;2023-06-26T00:48:44;23.00;63.86
73665;DHT22;61964;52.052;4.474;2023-06-26T00:51:11;22.93;64.46
73665;DHT22;61964;52.052;4.474;2023-06-26T00:53:37;22.96;64.52
73665;DHT22;61964;52.052;4.474;2023-06-26T00:56:05;22.84;64.81
73665;DHT22;61964;52.052;4.474;2023-06-26T00:58:31;22.80;64.73
73665;DHT22;61964;52.052;4.474;2023-06-26T01:00:57;22.81;64.87
73665;DHT22;61964;52.052;4.474;2023-06-26T01:03:24;22.81;65.14
73665;DHT22;61964;52.052;4.474;2023-06-26T01:05:56;22.69;65.26
73665;DHT22;61964;52.052;4.474;2023-06-26T01:08:25;22.64;65.41
73665;DHT22;61964;52.052;4.474;2023-06-26T01:10:51;22.62;65.64
73665;DHT22;61964;52.052;4.474;2023-06-26T01:13:17;22.59;65.87
73665;DHT22;61964;52.052;4.474;2023-06-26T01:15:43;22.56;66.14
73665;DHT22;61964;52.052;4.474;2023-06-26T01:18:09;22.55;66.12
73665;DHT22;61964;52.052;4.474;2023-06-26T01:20:39;22.57;65.96
73665;DHT22;61964;52.052;4.474;2023-06-26T01:23:42;22.55;65.53
73665;DHT22;61964;52.052;4.474;2023-06-26T01:26:19;22.56;65.95
73665;DHT22;61964;52.052;4.474;2023-06-26T01:28:47;22.60;65.79
73665;DHT22;61964;52.052;4.474;2023-06-26T01:31:15;22.55;65.98
73665;DHT22;61964;52.052;4.474;2023-06-26T01:33:41;22.49;66.29
73665;DHT22;61964;52.052;4.474;2023-06-26T01:36:07;22.46;66.29
73665;DHT22;61964;52.052;4.474;2023-06-26T01:38:33;22.43;66.52
73665;DHT22;61964;52.052;4.474;2023-06-26T01:41:00;22.41;66.60
73665;DHT22;61964;52.052;4.474;2023-06-26T01:43:53;22.36;66.45
73665;DHT22;61964;52.052;4.474;2023-06-26T01:50:00;22.50;65.95
73665;DHT22;61964;52.052;4.474;2023-06-26T01:52:58;22.49;65.77
73665;DHT22;61964;52.052;4.474;2023-06-26T01:55:48;22.46;65.75
73665;DHT22;61964;52.052;4.474;2023-06-26T01:58:17;22.42;65.80
73665;DHT22;61964;52.052;4.474;2023-06-26T02:00:47;22.39;65.68
73665;DHT22;61964;52.052;4.474;2023-06-26T02:03:13;22.32;65.76
73665;DHT22;61964;52.052;4.474;2023-06-26T02:05:38;22.19;65.99
73665;DHT22;61964;52.052;4.474;2023-06-26T02:08:05;22.13;66.42
73665;DHT22;61964;52.052;4.474;2023-06-26T02:10:31;22.09;66.59
73665;DHT22;61964;52.052;4.474;2023-06-26T02:12:56;22.09;66.69
73665;DHT22;61964;52.052;4.474;2023-06-26T02:15:22;22.06;66.88
73665;DHT22;61964;52.052;4.474;2023-06-26T02:17:48;22.04;66.96
73665;DHT22;61964;52.052;4.474;2023-06-26T02:20:15;22.00;67.37
73665;DHT22;61964;52.052;4.474;2023-06-26T02:22:41;21.97;67.37
73665;DHT22;61964;52.052;4.474;2023-06-26T02:25:08;21.95;67.39
73665;DHT22;61964;52.052;4.474;2023-06-26T02:27:34;21.94;67.26
73665;DHT22;61964;52.052;4.474;2023-06-26T02:30:00;21.94;67.18
73665;DHT22;61964;52.052;4.474;2023-06-26T02:32:25;21.90;66.97
73665;DHT22;61964;52.052;4.474;2023-06-26T02:34:51;21.91;66.76
73665;DHT22;61964;52.052;4.474;2023-06-26T02:37:18;21.95;66.58
73665;DHT22;61964;52.052;4.474;2023-06-26T02:39:43;21.92;66.48
73665;DHT22;61964;52.052;4.474;2023-06-26T02:42:09;21.82;66.41
73665;DHT22;61964;52.052;4.474;2023-06-26T02:44:35;21.78;67.06
73665;DHT22;61964;52.052;4.474;2023-06-26T02:47:00;21.73;66.86
73665;DHT22;61964;52.052;4.474;2023-06-26T02:49:26;21.67;67.16
73665;DHT22;61964;52.052;4.474;2023-06-26T02:51:52;21.64;67.24
73665;DHT22;61964;52.052;4.474;2023-06-26T02:54:18;21.58;67.17
73665;DHT22;61964;52.052;4.474;2023-06-26T02:56:43;21.53;67.54
73665;DHT22;61964;52.052;4.474;2023-06-26T02:59:09;21.41;67.54
73665;DHT22;61964;52.052;4.474;2023-06-26T03:01:35;21.32;67.83
73665;DHT22;61964;52.052;4.474;2023-06-26T03:04:02;21.22;68.34
73665;DHT22;61964;52.052;4.474;2023-06-26T03:06:27;21.24;68.22
73665;DHT22;61964;52.052;4.474;2023-06-26T03:08:53;21.22;68.20
73665;DHT22;61964;52.052;4.474;2023-06-26T03:11:20;21.16;68.56
73665;DHT22;61964;52.052;4.474;2023-06-26T03:13:45;21.22;68.26
73665;DHT22;61964;52.052;4.474;2023-06-26T03:16:11;21.24;68.14
73665;DHT22;61964;52.052;4.474;2023-06-26T03:18:37;21.16;68.00
73665;DHT22;61964;52.052;4.474;2023-06-26T03:21:03;21.13;68.05
73665;DHT22;61964;52.052;4.474;2023-06-26T03:23:29;21.10;68.17
73665;DHT22;61964;52.052;4.474;2023-06-26T03:25:54;21.12;67.97
73665;DHT22;61964;52.052;4.474;2023-06-26T03:28:20;21.04;68.00
73665;DHT22;61964;52.052;4.474;2023-06-26T03:30:46;21.00;68.29
73665;DHT22;61964;52.052;4.474;2023-06-26T03:33:12;21.00;68.36
73665;DHT22;61964;52.052;4.474;2023-06-26T03:35:37;21.03;67.94
73665;DHT22;61964;52.052;4.474;2023-06-26T03:38:04;20.98;68.30
73665;DHT22;61964;52.052;4.474;2023-06-26T03:40:30;20.89;68.55
73665;DHT22;61964;52.052;4.474;2023-06-26T03:42:56;20.92;68.20
73665;DHT22;61964;52.052;4.474;2023-06-26T03:45:22;20.89;68.28
73665;DHT22;61964;52.052;4.474;2023-06-26T03:48:04;20.89;68.07
73665;DHT22;61964;52.052;4.474;2023-06-26T03:50:29;20.83;68.33
73665;DHT22;61964;52.052;4.474;2023-06-26T03:52:55;20.76;68.65
73665;DHT22;61964;52.052;4.474;2023-06-26T03:55:21;20.79;68.47
73665;DHT22;61964;52.052;4.474;2023-06-26T03:57:49;20.73;68.66
73665;DHT22;61964;52.052;4.474;2023-06-26T04:00:15;20.71;68.66
73665;DHT22;61964;52.052;4.474;2023-06-26T04:02:41;20.69;68.86
73665;DHT22;61964;52.052;4.474;2023-06-26T04:05:07;20.68;69.16
73665;DHT22;61964;52.052;4.474;2023-06-26T04:07:33;20.71;69.07
73665;DHT22;61964;52.052;4.474;2023-06-26T04:09:59;20.65;69.12
73665;DHT22;61964;52.052;4.474;2023-06-26T04:12:25;20.62;69.07
73665;DHT22;61964;52.052;4.474;2023-06-26T04:14:51;20.67;69.09
73665;DHT22;61964;52.052;4.474;2023-06-26T04:17:17;20.67;68.81
73665;DHT22;61964;52.052;4.474;2023-06-26T04:19:43;20.73;68.91
73665;DHT22;61964;52.052;4.474;2023-06-26T04:22:08;20.83;68.08
73665;DHT22;61964;52.052;4.474;2023-06-26T04:24:34;20.83;68.05
73665;DHT22;61964;52.052;4.474;2023-06-26T04:27:00;20.86;67.50
73665;DHT22;61964;52.052;4.474;2023-06-26T04:29:26;20.86;67.16
73665;DHT22;61964;52.052;4.474;2023-06-26T04:31:53;20.89;66.79
73665;DHT22;61964;52.052;4.474;2023-06-26T04:34:29;20.95;66.54
73665;DHT22;61964;52.052;4.474;2023-06-26T04:37:00;20.98;66.31
73665;DHT22;61964;52.052;4.474;2023-06-26T04:39:29;20.96;66.55
73665;DHT22;61964;52.052;4.474;2023-06-26T04:41:56;20.95;66.66
73665;DHT22;61964;52.052;4.474;2023-06-26T04:44:21;20.99;66.50
73665;DHT22;61964;52.052;4.474;2023-06-26T04:46:47;21.02;66.51
73665;DHT22;61964;52.052;4.474;2023-06-26T04:49:13;21.03;66.59
73665;DHT22;61964;52.052;4.474;2023-06-26T04:51:39;21.03;66.99
73665;DHT22;61964;52.052;4.474;2023-06-26T04:54:08;21.03;67.35
73665;DHT22;61964;52.052;4.474;2023-06-26T04:56:34;21.03;67.61
73665;DHT22;61964;52.052;4.474;2023-06-26T04:59:01;21.07;67.72
73665;DHT22;61964;52.052;4.474;2023-06-26T05:01:27;21.07;67.77
73665;DHT22;61964;52.052;4.474;2023-06-26T05:04:01;21.06;67.95
73665;DHT22;61964;52.052;4.474;2023-06-26T05:06:32;21.06;68.16
73665;DHT22;61964;52.052;4.474;2023-06-26T05:08:58;21.04;68.08
73665;DHT22;61964;52.052;4.474;2023-06-26T05:11:25;21.10;67.85
73665;DHT22;61964;52.052;4.474;2023-06-26T05:13:50;21.10;67.85
73665;DHT22;61964;52.052;4.474;2023-06-26T05:16:16;21.18;68.05
73665;DHT22;61964;52.052;4.474;2023-06-26T05:18:42;21.30;67.62
73665;DHT22;61964;52.052;4.474;2023-06-26T05:21:08;21.40;67.34
73665;DHT22;61964;52.052;4.474;2023-06-26T05:23:34;21.51;66.53
73665;DHT22;61964;52.052;4.474;2023-06-26T05:26:01;21.63;66.11
73665;DHT22;61964;52.052;4.474;2023-06-26T05:28:29;21.64;64.95
73665;DHT22;61964;52.052;4.474;2023-06-26T05:30:57;21.60;64.49
73665;DHT22;61964;52.052;4.474;2023-06-26T05:33:25;21.58;64.09
73665;DHT22;61964;52.052;4.474;2023-06-26T05:35:53;21.49;64.02
73665;DHT22;61964;52.052;4.474;2023-06-26T05:38:19;21.47;63.00
73665;DHT22;61964;52.052;4.474;2023-06-26T05:40:45;21.41;63.07
73665;DHT22;61964;52.052;4.474;2023-06-26T05:43:12;21.33;62.97
73665;DHT22;61964;52.052;4.474;2023-06-26T05:45:38;21.24;62.59
73665;DHT22;61964;52.052;4.474;2023-06-26T05:48:04;21.14;62.84
73665;DHT22;61964;52.052;4.474;2023-06-26T05:50:30;21.14;62.79
73665;DHT22;61964;52.052;4.474;2023-06-26T05:52:56;21.19;61.88
73665;DHT22;61964;52.052;4.474;2023-06-26T05:55:22;21.14;61.94
73665;DHT22;61964;52.052;4.474;2023-06-26T05:57:50;21.32;61.46
73665;DHT22;61964;52.052;4.474;2023-06-26T06:00:17;21.34;60.83
73665;DHT22;61964;52.052;4.474;2023-06-26T06:02:43;21.43;60.77
73665;DHT22;61964;52.052;4.474;2023-06-26T06:05:09;21.47;61.31
73665;DHT22;61964;52.052;4.474;2023-06-26T06:07:36;21.46;59.96
73665;DHT22;61964;52.052;4.474;2023-06-26T06:10:04;21.46;60.88
73665;DHT22;61964;52.052;4.474;2023-06-26T06:12:29;21.47;60.31
73665;DHT22;61964;52.052;4.474;2023-06-26T06:14:56;21.51;60.66
73665;DHT22;61964;52.052;4.474;2023-06-26T06:17:22;21.57;59.86
73665;DHT22;61964;52.052;4.474;2023-06-26T06:19:48;21.51;60.13
73665;DHT22;61964;52.052;4.474;2023-06-26T06:22:14;21.40;60.25
73665;DHT22;61964;52.052;4.474;2023-06-26T06:24:43;21.27;59.97
73665;DHT22;61964;52.052;4.474;2023-06-26T06:27:09;21.30;60.69
73665;DHT22;61964;52.052;4.474;2023-06-26T06:29:35;21.41;60.75
73665;DHT22;61964;52.052;4.474;2023-06-26T06:32:01;21.58;59.65
73665;DHT22;61964;52.052;4.474;2023-06-26T06:34:26;21.58;59.16
73665;DHT22;61964;52.052;4.474;2023-06-26T06:36:52;21.51;59.27
73665;DHT22;61964;52.052;4.474;2023-06-26T06:39:18;21.49;59.65
73665;DHT22;61964;52.052;4.474;2023-06-26T06:41:44;21.60;59.45
73665;DHT22;61964;52.052;4.474;2023-06-26T06:44:09;21.63;59.20
73665;DHT22;61964;52.052;4.474;2023-06-26T06:46:35;21.54;59.28
73665;DHT22;61964;52.052;4.474;2023-06-26T06:49:01;21.57;59.56
73665;DHT22;61964;52.052;4.474;2023-06-26T06:51:27;21.67;59.84
73665;DHT22;61964;52.052;4.474;2023-06-26T06:53:53;21.80;59.15
73665;DHT22;61964;52.052;4.474;2023-06-26T06:56:18;21.84;59.12
73665;DHT22;61964;52.052;4.474;2023-06-26T06:58:44;21.91;58.39
73665;DHT22;61964;52.052;4.474;2023-06-26T07:01:12;21.71;58.39
73665;DHT22;61964;52.052;4.474;2023-06-26T07:03:37;21.58;58.75
73665;DHT22;61964;52.052;4.474;2023-06-26T07:06:03;21.57;58.77
73665;DHT22;61964;52.052;4.474;2023-06-26T07:08:29;21.58;58.92
73665;DHT22;61964;52.052;4.474;2023-06-26T07:10:56;21.60;59.77
73665;DHT22;61964;52.052;4.474;2023-06-26T07:13:24;21.64;59.18
73665;DHT22;61964;52.052;4.474;2023-06-26T07:15:50;21.65;58.96
73665;DHT22;61964;52.052;4.474;2023-06-26T07:18:17;21.65;59.23
73665;DHT22;61964;52.052;4.474;2023-06-26T07:20:48;21.73;58.94
73665;DHT22;61964;52.052;4.474;2023-06-26T07:23:14;21.85;57.86
73665;DHT22;61964;52.052;4.474;2023-06-26T07:25:40;21.88;57.61
73665;DHT22;61964;52.052;4.474;2023-06-26T07:28:12;21.97;57.73
73665;DHT22;61964;52.052;4.474;2023-06-26T07:30:38;22.01;57.64
73665;DHT22;61964;52.052;4.474;2023-06-26T07:33:05;22.00;57.75
73665;DHT22;61964;52.052;4.474;2023-06-26T07:35:30;22.00;57.84
73665;DHT22;61964;52.052;4.474;2023-06-26T07:37:56;22.05;57.73
73665;DHT22;61964;52.052;4.474;2023-06-26T07:40:22;22.19;57.54
73665;DHT22;61964;52.052;4.474;2023-06-26T07:42:48;22.35;56.66
73665;DHT22;61964;52.052;4.474;2023-06-26T07:45:14;22.31;56.86
73665;DHT22;61964;52.052;4.474;2023-06-26T07:47:40;22.23;55.89
73665;DHT22;61964;52.052;4.474;2023-06-26T07:50:06;22.09;55.99
73665;DHT22;61964;52.052;4.474;2023-06-26T07:52:33;22.15;56.75
73665;DHT22;61964;52.052;4.474;2023-06-26T07:54:59;22.28;56.74
73665;DHT22;61964;52.052;4.474;2023-06-26T07:57:25;22.32;55.31
73665;DHT22;61964;52.052;4.474;2023-06-26T07:59:50;22.26;54.87
73665;DHT22;61964;52.052;4.474;2023-06-26T08:02:16;22.31;55.14
73665;DHT22;61964;52.052;4.474;2023-06-26T08:04:43;22.45;55.40
73665;DHT22;61964;52.052;4.474;2023-06-26T08:07:09;22.39;55.11
73665;DHT22;61964;52.052;4.474;2023-06-26T08:09:35;22.39;55.60
73665;DHT22;61964;52.052;4.474;2023-06-26T08:12:02;22.42;56.03
73665;DHT22;61964;52.052;4.474;2023-06-26T08:14:28;22.38;56.46
73665;DHT22;61964;52.052;4.474;2023-06-26T08:16:54;22.45;56.05
73665;DHT22;61964;52.052;4.474;2023-06-26T08:19:20;22.59;55.60
73665;DHT22;61964;52.052;4.474;2023-06-26T08:21:46;22.63;56.10
73665;DHT22;61964;52.052;4.474;2023-06-26T08:24:13;22.72;53.76
73665;DHT22;61964;52.052;4.474;2023-06-26T08:26:41;22.76;54.11
73665;DHT22;61964;52.052;4.474;2023-06-26T08:29:07;22.83;53.46
73665;DHT22;61964;52.052;4.474;2023-06-26T08:31:34;22.72;53.63
73665;DHT22;61964;52.052;4.474;2023-06-26T08:34:04;22.67;54.28
73665;DHT22;61964;52.052;4.474;2023-06-26T08:36:31;22.74;54.11
73665;DHT22;61964;52.052;4.474;2023-06-26T08:38:57;22.86;54.47
73665;DHT22;61964;52.052;4.474;2023-06-26T08:41:24;23.00;52.73
73665;DHT22;61964;52.052;4.474;2023-06-26T08:43:50;22.96;53.25
73665;DHT22;61964;52.052;4.474;2023-06-26T08:46:18;22.93;51.64
73665;DHT22;61964;52.052;4.474;2023-06-26T08:48:48;22.96;53.44
73665;DHT22;61964;52.052;4.474;2023-06-26T08:51:17;23.13;51.66
73665;DHT22;61964;52.052;4.474;2023-06-26T08:54:09;23.03;51.15
73665;DHT22;61964;52.052;4.474;2023-06-26T08:56:41;23.00;51.40
73665;DHT22;61964;52.052;4.474;2023-06-26T08:59:08;23.14;52.11
73665;DHT22;61964;52.052;4.474;2023-06-26T09:01:41;23.24;52.44
73665;DHT22;61964;52.052;4.474;2023-06-26T09:04:07;23.37;52.20
73665;DHT22;61964;52.052;4.474;2023-06-26T09:06:33;23.28;52.62
73665;DHT22;61964;52.052;4.474;2023-06-26T09:08:59;23.15;53.23
73665;DHT22;61964;52.052;4.474;2023-06-26T09:11:25;23.10;52.97
73665;DHT22;61964;52.052;4.474;2023-06-26T09:13:51;22.97;52.86
73665;DHT22;61964;52.052;4.474;2023-06-26T09:16:17;22.96;53.41
73665;DHT22;61964;52.052;4.474;2023-06-26T09:18:45;23.20;54.41
73665;DHT22;61964;52.052;4.474;2023-06-26T09:21:12;23.37;52.91
73665;DHT22;61964;52.052;4.474;2023-06-26T09:23:40;23.51;53.15
73665;DHT22;61964;52.052;4.474;2023-06-26T09:26:06;23.50;53.71
73665;DHT22;61964;52.052;4.474;2023-06-26T09:28:34;23.59;52.50
73665;DHT22;61964;52.052;4.474;2023-06-26T09:31:03;23.59;53.81
73665;DHT22;61964;52.052;4.474;2023-06-26T09:33:34;23.32;52.86
73665;DHT22;61964;52.052;4.474;2023-06-26T09:36:02;23.25;53.32
73665;DHT22;61964;52.052;4.474;2023-06-26T09:38:30;23.06;53.19
73665;DHT22;61964;52.052;4.474;2023-06-26T09:40:56;23.01;53.51
73665;DHT22;61964;52.052;4.474;2023-06-26T09:43:21;23.17;53.42
73665;DHT22;61964;52.052;4.474;2023-06-26T09:45:48;23.14;53.10
73665;DHT22;61964;52.052;4.474;2023-06-26T09:48:15;23.14;53.40
73665;DHT22;61964;52.052;4.474;2023-06-26T09:50:42;23.30;53.01
73665;DHT22;61964;52.052;4.474;2023-06-26T09:53:12;23.37;51.46
73665;DHT22;61964;52.052;4.474;2023-06-26T09:55:41;23.37;51.94
73665;DHT22;61964;52.052;4.474;2023-06-26T09:58:12;23.45;51.63
73665;DHT22;61964;52.052;4.474;2023-06-26T10:00:43;23.52;50.56
73665;DHT22;61964;52.052;4.474;2023-06-26T10:03:10;23.66;51.06
73665;DHT22;61964;52.052;4.474;2023-06-26T10:05:37;23.86;51.33
73665;DHT22;61964;52.052;4.474;2023-06-26T10:08:05;24.08;49.66
73665;DHT22;61964;52.052;4.474;2023-06-26T10:10:33;23.93;50.00
73665;DHT22;61964;52.052;4.474;2023-06-26T10:13:07;23.92;49.39
73665;DHT22;61964;52.052;4.474;2023-06-26T10:15:36;23.78;49.06
73665;DHT22;61964;52.052;4.474;2023-06-26T10:18:03;23.71;49.94
73665;DHT22;61964;52.052;4.474;2023-06-26T10:20:29;23.73;48.85
73665;DHT22;61964;52.052;4.474;2023-06-26T10:23:00;23.83;48.60
73665;DHT22;61964;52.052;4.474;2023-06-26T10:25:27;23.93;49.41
73665;DHT22;61964;52.052;4.474;2023-06-26T10:28:00;23.99;48.42
73665;DHT22;61964;52.052;4.474;2023-06-26T10:30:32;24.06;47.83
73665;DHT22;61964;52.052;4.474;2023-06-26T10:33:00;23.99;47.63
73665;DHT22;61964;52.052;4.474;2023-06-26T10:35:27;24.03;48.22
73665;DHT22;61964;52.052;4.474;2023-06-26T10:38:01;24.02;48.59
73665;DHT22;61964;52.052;4.474;2023-06-26T10:40:43;23.90;48.09
73665;DHT22;61964;52.052;4.474;2023-06-26T10:43:12;23.68;48.04
73665;DHT22;61964;52.052;4.474;2023-06-26T10:45:49;23.62;48.80
73665;DHT22;61964;52.052;4.474;2023-06-26T10:48:20;23.76;49.24
73665;DHT22;61964;52.052;4.474;2023-06-26T10:50:49;23.96;48.26
73665;DHT22;61964;52.052;4.474;2023-06-26T10:53:38;23.96;48.91
73665;DHT22;61964;52.052;4.474;2023-06-26T10:56:05;23.95;49.32
73665;DHT22;61964;52.052;4.474;2023-06-26T10:59:10;23.96;49.94
73665;DHT22;61964;52.052;4.474;2023-06-26T11:01:40;24.19;47.56
73665;DHT22;61964;52.052;4.474;2023-06-26T11:04:08;24.40;47.33
73665;DHT22;61964;52.052;4.474;2023-06-26T11:06:36;24.31;48.17
73665;DHT22;61964;52.052;4.474;2023-06-26T11:09:24;24.24;46.85
73665;DHT22;61964;52.052;4.474;2023-06-26T11:12:13;24.13;47.83
73665;DHT22;61964;52.052;4.474;2023-06-26T11:14:39;24.05;48.15
73665;DHT22;61964;52.052;4.474;2023-06-26T11:17:05;24.06;48.54
73665;DHT22;61964;52.052;4.474;2023-06-26T11:19:31;24.08;48.76
73665;DHT22;61964;52.052;4.474;2023-06-26T11:22:02;24.16;48.41
73665;DHT22;61964;52.052;4.474;2023-06-26T11:24:29;24.22;47.62
73665;DHT22;61964;52.052;4.474;2023-06-26T11:27:00;24.00;46.63
73665;DHT22;61964;52.052;4.474;2023-06-26T11:29:26;23.98;46.79
73665;DHT22;61964;52.052;4.474;2023-06-26T11:31:59;24.10;46.51
73665;DHT22;61964;52.052;4.474;2023-06-26T11:34:29;24.30;46.13
73665;DHT22;61964;52.052;4.474;2023-06-26T11:36:57;24.44;45.96
73665;DHT22;61964;52.052;4.474;2023-06-26T11:39:23;24.39;45.59
73665;DHT22;61964;52.052;4.474;2023-06-26T11:44:30;24.68;45.51
73665;DHT22;61964;52.052;4.474;2023-06-26T11:46:57;24.74;44.42
73665;DHT22;61964;52.052;4.474;2023-06-26T11:49:23;24.80;46.99
73665;DHT22;61964;52.052;4.474;2023-06-26T11:51:53;25.02;44.59
73665;DHT22;61964;52.052;4.474;2023-06-26T11:54:24;24.92;43.76
73665;DHT22;61964;52.052;4.474;2023-06-26T11:56:58;24.96;44.78
73665;DHT22;61964;52.052;4.474;2023-06-26T11:59:40;24.96;44.94
73665;DHT22;61964;52.052;4.474;2023-06-26T12:02:07;24.92;46.10
73665;DHT22;61964;52.052;4.474;2023-06-26T12:04:37;24.60;45.29
73665;DHT22;61964;52.052;4.474;2023-06-26T12:07:19;24.26;45.33
73665;DHT22;61964;52.052;4.474;2023-06-26T12:09:46;24.23;45.57
73665;DHT22;61964;52.052;4.474;2023-06-26T12:12:16;24.50;46.07
73665;DHT22;61964;52.052;4.474;2023-06-26T12:14:42;24.34;44.26
73665;DHT22;61964;52.052;4.474;2023-06-26T12:17:10;24.29;44.89
73665;DHT22;61964;52.052;4.474;2023-06-26T12:19:38;24.34;45.09
73665;DHT22;61964;52.052;4.474;2023-06-26T12:22:07;24.50;45.87
73665;DHT22;61964;52.052;4.474;2023-06-26T12:24:36;24.80;46.31
73665;DHT22;61964;52.052;4.474;2023-06-26T12:27:02;25.19;45.52
73665;DHT22;61964;52.052;4.474;2023-06-26T12:29:32;25.22;43.37
73665;DHT22;61964;52.052;4.474;2023-06-26T12:32:00;25.32;43.70
73665;DHT22;61964;52.052;4.474;2023-06-26T12:34:31;25.56;42.78
73665;DHT22;61964;52.052;4.474;2023-06-26T12:37:04;25.32;43.23
73665;DHT22;61964;52.052;4.474;2023-06-26T12:42:34;25.01;43.01
73665;DHT22;61964;52.052;4.474;2023-06-26T12:45:11;24.87;44.20
73665;DHT22;61964;52.052;4.474;2023-06-26T12:47:37;24.88;43.24
73665;DHT22;61964;52.052;4.474;2023-06-26T12:50:07;24.70;43.68
73665;DHT22;61964;52.052;4.474;2023-06-26T12:52:33;24.56;46.14
73665;DHT22;61964;52.052;4.474;2023-06-26T12:54:59;24.41;44.48
73665;DHT22;61964;52.052;4.474;2023-06-26T12:57:25;24.41;44.15
73665;DHT22;61964;52.052;4.474;2023-06-26T12:59:52;24.59;44.45
73665;DHT22;61964;52.052;4.474;2023-06-26T13:02:18;24.78;44.18
73665;DHT22;61964;52.052;4.474;2023-06-26T13:04:44;24.99;44.14
73665;DHT22;61964;52.052;4.474;2023-06-26T13:07:13;25.26;44.82
73665;DHT22;61964;52.052;4.474;2023-06-26T13:09:39;25.47;44.50
73665;DHT22;61964;52.052;4.474;2023-06-26T13:12:06;25.18;43.48
73665;DHT22;61964;52.052;4.474;2023-06-26T13:14:33;25.07;42.78
73665;DHT22;61964;52.052;4.474;2023-06-26T13:17:00;25.09;43.69
73665;DHT22;61964;52.052;4.474;2023-06-26T13:19:26;25.19;43.82
73665;DHT22;61964;52.052;4.474;2023-06-26T13:21:51;25.23;41.92
73665;DHT22;61964;52.052;4.474;2023-06-26T13:24:17;25.25;42.85
73665;DHT22;61964;52.052;4.474;2023-06-26T13:26:43;25.31;42.70
73665;DHT22;61964;52.052;4.474;2023-06-26T13:29:09;25.50;42.69
73665;DHT22;61964;52.052;4.474;2023-06-26T13:31:34;25.59;42.70
73665;DHT22;61964;52.052;4.474;2023-06-26T13:34:02;25.72;41.15
73665;DHT22;61964;52.052;4.474;2023-06-26T13:36:29;25.59;40.77
73665;DHT22;61964;52.052;4.474;2023-06-26T13:38:55;25.38;42.47
73665;DHT22;61964;52.052;4.474;2023-06-26T13:41:25;25.39;41.16
73665;DHT22;61964;52.052;4.474;2023-06-26T13:43:51;25.42;40.22
73665;DHT22;61964;52.052;4.474;2023-06-26T13:46:17;25.52;40.73
73665;DHT22;61964;52.052;4.474;2023-06-26T13:48:44;25.70;40.90
73665;DHT22;61964;52.052;4.474;2023-06-26T13:51:10;26.01;40.58
73665;DHT22;61964;52.052;4.474;2023-06-26T13:53:36;26.03;39.26
73665;DHT22;61964;52.052;4.474;2023-06-26T13:56:02;25.83;38.80
73665;DHT22;61964;52.052;4.474;2023-06-26T13:58:27;25.70;39.73
73665;DHT22;61964;52.052;4.474;2023-06-26T14:00:55;25.74;40.59
73665;DHT22;61964;52.052;4.474;2023-06-26T14:03:21;25.94;40.56
73665;DHT22;61964;52.052;4.474;2023-06-26T14:05:47;26.14;41.62
73665;DHT22;61964;52.052;4.474;2023-06-26T14:08:13;26.51;41.02
73665;DHT22;61964;52.052;4.474;2023-06-26T14:10:39;26.42;38.54
73665;DHT22;61964;52.052;4.474;2023-06-26T14:13:05;26.52;38.88
73665;DHT22;61964;52.052;4.474;2023-06-26T14:15:34;26.49;38.66
73665;DHT22;61964;52.052;4.474;2023-06-26T14:18:01;26.40;38.97
73665;DHT22;61964;52.052;4.474;2023-06-26T14:20:28;25.84;40.90
73665;DHT22;61964;52.052;4.474;2023-06-26T14:22:58;25.83;41.29
73665;DHT22;61964;52.052;4.474;2023-06-26T14:25:24;26.07;39.76
73665;DHT22;61964;52.052;4.474;2023-06-26T14:27:50;26.56;40.95
73665;DHT22;61964;52.052;4.474;2023-06-26T14:30:16;26.58;39.83
73665;DHT22;61964;52.052;4.474;2023-06-26T14:32:41;26.22;40.41
73665;DHT22;61964;52.052;4.474;2023-06-26T14:35:07;26.51;40.06
73665;DHT22;61964;52.052;4.474;2023-06-26T14:37:35;26.67;40.72
73665;DHT22;61964;52.052;4.474;2023-06-26T14:40:01;26.53;40.20
73665;DHT22;61964;52.052;4.474;2023-06-26T14:42:27;26.44;40.69
73665;DHT22;61964;52.052;4.474;2023-06-26T14:44:53;26.51;40.81
73665;DHT22;61964;52.052;4.474;2023-06-26T14:47:19;26.30;39.89
73665;DHT22;61964;52.052;4.474;2023-06-26T14:49:45;26.13;40.50
73665;DHT22;61964;52.052;4.474;2023-06-26T14:52:11;25.32;42.99
73665;DHT22;61964;52.052;4.474;2023-06-26T14:54:37;25.74;41.88
73665;DHT22;61964;52.052;4.474;2023-06-26T14:57:03;26.04;41.09
73665;DHT22;61964;52.052;4.474;2023-06-26T14:59:29;25.90;41.96
73665;DHT22;61964;52.052;4.474;2023-06-26T15:01:55;25.67;42.60
73665;DHT22;61964;52.052;4.474;2023-06-26T15:04:21;25.41;42.91
73665;DHT22;61964;52.052;4.474;2023-06-26T15:06:47;25.31;43.20
73665;DHT22;61964;52.052;4.474;2023-06-26T15:09:12;25.35;43.20
73665;DHT22;61964;52.052;4.474;2023-06-26T15:11:38;25.26;42.82
73665;DHT22;61964;52.052;4.474;2023-06-26T15:14:04;25.12;43.55
73665;DHT22;61964;52.052;4.474;2023-06-26T15:16:30;25.19;44.57
73665;DHT22;61964;52.052;4.474;2023-06-26T15:18:55;25.39;44.18
73665;DHT22;61964;52.052;4.474;2023-06-26T15:21:21;25.31;43.98
73665;DHT22;61964;52.052;4.474;2023-06-26T15:23:48;25.47;44.21
73665;DHT22;61964;52.052;4.474;2023-06-26T15:26:13;25.56;42.86
73665;DHT22;61964;52.052;4.474;2023-06-26T15:28:40;25.52;42.95
73665;DHT22;61964;52.052;4.474;2023-06-26T15:31:05;25.46;43.24
73665;DHT22;61964;52.052;4.474;2023-06-26T15:33:31;25.41;42.72
73665;DHT22;61964;52.052;4.474;2023-06-26T15:35:58;25.41;43.81
73665;DHT22;61964;52.052;4.474;2023-06-26T15:38:23;25.36;43.92
73665;DHT22;61964;52.052;4.474;2023-06-26T15:40:49;25.28;42.77
73665;DHT22;61964;52.052;4.474;2023-06-26T15:43:15;25.19;44.25